LXGB/GIB METAR and TAF weather

Enter ICAO airport designator
Station Type Date Time Source
LXGB METAR 2020/12/05 05:50 UTC NOAA

LXGB 050550Z 27011KT CAVOK 08/03 Q1006 RMK BLU


Station Type Date Time Source
LXGB Decoded METAR 2020/12/05 05:50 UTC NOAA

Gibraltar, Gibraltar (LXGB) 36-09N 005-21W 0M
Dec 05, 2020 - 12:50 AM EST / 2020.12.05 0550 UTC
Wind: from the W (270 degrees) at 13 MPH (11 KT):0
Visibility: greater than 7 mile(s):0
Temperature: 46 F (8 C)
Dew Point: 37 F (3 C)
Relative Humidity: 70%
Pressure (altimeter): 29.71 in. Hg (1006 hPa)
ob: LXGB 050550Z 27011KT CAVOK 08/03 Q1006 RMK BLU
cycle: 6

Station Type Date Time Source
LXGB TAF 2020/07/15 18:37 UTC NOAA

TAF LXGB 150530Z 1418/1523 CNL

Example: see airport list